Yarrawonga, Victoria

11:13 AM AEDT on October 22, 2014 (GMT +1100)
Mulwala | Change Station
CLOSE
Current Station
Personal Weather Station
Location: Mulwala, NEW SOUTH WALES
Elevation: 443 ft
Nearby Weather Stations

Elev 443 ft 35.99 °S, 146.00 °E | Updated 26 seconds ago

Clear
Clear
72.9 °F
Feels Like 77 °F
N
9.6
Wind Variable Wind from NE
Gusts 9.8 mph

Today
High -- | Low -- °F
--% Chance of Precip.
Yesterday
High -- | Low -- °F
Precip. -- in
6:24 AM 7:37 PM
Waning Crescent, 4% visible
Pressure 30.18 in
Visibility 6.2 miles
Clouds
Heat Index 77 °F
Dew Point 49 °F
Humidity 43%
Rainfall 0.00 in
Snow Depth Not available.
UV 7.0 out of 12
Pollen Not available.
Air Quality Not available.
Flu Activity Not available.
METAR YMAY 220000Z AUTO 07007KT 9999 // NCD 23/13 Q1022

More Conditions Fewer Conditions

Pressure 30.18 in
Visibility 6.2 miles
Clouds
Heat Index 77 °F
Dew Point 49 °F
Humidity 43%
Rainfall 0.00 in
Snow Depth Not available.
UV 7.0 out of 12
Pollen Not available.
Air Quality Not available.
Flu Activity Not available.
METAR YMAY 220000Z AUTO 07007KT 9999 // NCD 23/13 Q1022

More Conditions Fewer Conditions

10-Day Weather Forecast

Almanac

Astronomy

Oct. 22, 2014 Rise Set
Actual Time 6:24 AM AEDT 7:37 PM AEDT
Civil Twilight 5:57 AM AEDT 8:04 PM AEDT
Nautical Twilight 5:26 AM AEDT 8:35 PM AEDT
Astronomical Twilight 4:53 AM AEDT 9:09 PM AEDT
Moon 5:19 AM AEDT 6:03 PM AEDT
Length of Visible Light 14h 06m
Length of Day
13h 13m
Tomorrow will be 2m 11s longer.
Waning Crescent, 4% of the Moon is Illuminated
Oct 21
Waning Crescent
Oct 23
New
Oct 30
First Quarter
Nov 6
Full
Nov 14
Last Quarter

Yesterday's Extremes

Country Highs Country Lows

Community

WunderPhotos

Upload Photos

1,763,826 photos uploaded!

Nearby

Snow Depth

Not available.

Earthquake Activity

City Distance Mag. Time & Date
No recent earthquake activity has been reported nearby.
Minimum magnitude displayed is 2.5.

Coastal Water Temperatures

Place Temperature
No Stations Reporting

Nearby Weather Stations